createdAt,value
2018-05-16T00:02:12.232Z,99.90
2018-05-16T00:04:38.951Z,99.90
2018-05-16T00:07:05.655Z,99.90
2018-05-16T00:09:32.352Z,99.90
2018-05-16T00:11:59.061Z,99.80
2018-05-16T00:14:25.802Z,99.30
2018-05-16T00:16:53.394Z,98.80
2018-05-16T00:19:20.111Z,98.50
2018-05-16T00:21:46.811Z,97.60
2018-05-16T00:24:13.508Z,97.30
2018-05-16T00:26:40.226Z,97.40
2018-05-16T00:29:06.942Z,97.40
2018-05-16T00:31:34.387Z,97.60
2018-05-16T00:34:01.073Z,97.60
2018-05-16T00:36:27.840Z,97.90
2018-05-16T00:38:54.539Z,97.60
2018-05-16T00:41:21.319Z,97.50
2018-05-16T00:43:48.057Z,97.50
2018-05-16T00:46:14.754Z,97.60
2018-05-16T00:48:41.440Z,97.50
2018-05-16T00:51:26.649Z,98.10
2018-05-16T00:53:54.079Z,99.00
2018-05-16T00:56:20.804Z,99.00
2018-05-16T00:58:47.485Z,98.90
2018-05-16T01:01:14.912Z,98.90
2018-05-16T01:03:41.604Z,99.00
2018-05-16T01:06:08.348Z,98.90
2018-05-16T01:08:35.020Z,98.80
2018-05-16T01:11:01.699Z,98.60
2018-05-16T01:13:29.142Z,98.50
2018-05-16T01:15:56.607Z,98.60
2018-05-16T01:18:24.817Z,98.60
2018-05-16T01:20:51.496Z,98.60
2018-05-16T01:23:18.169Z,98.60
2018-05-16T01:25:44.864Z,98.50
2018-05-16T01:28:11.549Z,97.30
2018-05-16T01:30:38.259Z,97.10
2018-05-16T01:33:05.723Z,96.30
2018-05-16T01:35:33.164Z,96.10
2018-05-16T01:37:59.851Z,96.10
2018-05-16T01:40:26.532Z,96.00
2018-05-16T01:42:53.212Z,95.80
2018-05-16T01:45:19.897Z,95.60
2018-05-16T01:47:46.611Z,95.50
2018-05-16T01:50:13.292Z,95.10
2018-05-16T01:52:39.994Z,95.10
2018-05-16T01:55:06.671Z,95.30
2018-05-16T01:57:34.139Z,95.60
2018-05-16T02:00:01.599Z,95.70
2018-05-16T02:02:29.018Z,95.80
2018-05-16T02:04:55.724Z,95.90
2018-05-16T02:07:22.397Z,95.90
2018-05-16T02:09:49.092Z,96.10
2018-05-16T02:12:15.784Z,96.40
2018-05-16T02:14:42.491Z,96.60
2018-05-16T02:17:09.209Z,96.70
2018-05-16T02:19:39.011Z,96.90
2018-05-16T02:22:05.692Z,97.00
2018-05-16T02:24:32.391Z,97.10
2018-05-16T02:26:59.059Z,97.30
2018-05-16T02:29:25.844Z,97.30
2018-05-16T02:31:53.269Z,97.70
2018-05-16T02:34:19.944Z,97.70
2018-05-16T02:36:47.378Z,98.90
2018-05-16T02:39:14.086Z,98.90
2018-05-16T02:41:40.817Z,99.00
2018-05-16T02:44:07.512Z,99.20
2018-05-16T02:46:34.937Z,99.10
2018-05-16T02:49:01.627Z,99.10
2018-05-16T02:51:28.337Z,99.00
2018-05-16T02:53:55.025Z,98.40
2018-05-16T02:56:21.707Z,97.40
2018-05-16T02:58:48.465Z,96.90
2018-05-16T03:01:16.057Z,95.60
2018-05-16T03:03:42.741Z,95.60
2018-05-16T03:06:09.417Z,95.80
2018-05-16T03:08:36.100Z,95.60
2018-05-16T03:11:02.792Z,95.60
2018-05-16T03:13:29.505Z,95.80
2018-05-16T03:15:56.944Z,95.50
2018-05-16T03:18:24.464Z,95.50
2018-05-16T03:20:51.137Z,95.60
2018-05-16T03:23:17.832Z,95.80
2018-05-16T03:25:44.536Z,95.60
2018-05-16T03:28:12.007Z,95.80
2018-05-16T03:30:39.432Z,95.70
2018-05-16T03:33:06.127Z,95.80
2018-05-16T03:35:32.837Z,95.80
2018-05-16T03:38:00.257Z,96.10
2018-05-16T03:40:26.937Z,96.10
2018-05-16T03:42:54.377Z,96.30
2018-05-16T03:45:21.824Z,96.30
2018-05-16T03:47:48.496Z,96.30
2018-05-16T03:50:15.184Z,96.40
2018-05-16T03:52:41.904Z,96.40
2018-05-16T03:55:08.576Z,96.50
2018-05-16T04:01:09.752Z,96.40
2018-05-16T04:06:44.784Z,96.20
2018-05-16T04:09:11.505Z,96.20
2018-05-16T04:11:42.031Z,96.20
2018-05-16T04:14:08.707Z,96.10
2018-05-16T04:16:36.149Z,96.30
2018-05-16T04:19:02.859Z,96.30
2018-05-16T04:21:29.629Z,95.60
2018-05-16T04:23:56.981Z,94.70
2018-05-16T04:26:23.672Z,94.70
2018-05-16T04:28:50.393Z,94.80
2018-05-16T04:31:17.087Z,94.80
2018-05-16T04:33:43.812Z,95.20
2018-05-16T04:36:10.482Z,95.50
2018-05-16T04:38:37.156Z,95.70
2018-05-16T04:41:03.853Z,95.90
2018-05-16T04:43:30.517Z,96.10
2018-05-16T04:45:57.932Z,96.20
2018-05-16T04:48:24.631Z,96.10
2018-05-16T04:50:51.304Z,96.20
2018-05-16T04:53:18.014Z,96.10
2018-05-16T04:55:45.466Z,95.40
2018-05-16T04:58:12.179Z,95.40
2018-05-16T05:00:39.606Z,95.60
2018-05-16T05:03:06.292Z,95.50
2018-05-16T05:05:33.007Z,95.60
2018-05-16T05:07:59.712Z,95.60
2018-05-16T05:10:27.179Z,95.30
2018-05-16T05:12:53.904Z,95.30
2018-05-16T05:15:20.577Z,95.00
2018-05-16T05:17:48.025Z,94.60
2018-05-16T05:20:15.477Z,94.20
2018-05-16T05:22:42.229Z,94.20
2018-05-16T05:25:09.664Z,94.00
2018-05-16T05:27:36.336Z,94.00
2018-05-16T05:30:03.116Z,94.00
2018-05-16T05:32:29.844Z,93.70
2018-05-16T05:34:56.563Z,93.50
2018-05-16T05:37:23.257Z,93.90
2018-05-16T05:39:49.953Z,93.80
2018-05-16T05:42:16.660Z,93.70
2018-05-16T05:44:44.081Z,92.00
2018-05-16T05:47:10.784Z,92.00
2018-05-16T05:49:37.484Z,91.80
2018-05-16T05:52:04.937Z,91.00
2018-05-16T05:54:32.456Z,91.30
2018-05-16T05:56:59.166Z,91.20
2018-05-16T05:59:25.836Z,91.40
2018-05-16T06:01:52.628Z,91.10
2018-05-16T06:04:19.303Z,90.40
2018-05-16T06:06:46.019Z,90.60
2018-05-16T06:09:12.716Z,89.50
2018-05-16T06:11:39.497Z,90.00
2018-05-16T06:14:06.145Z,90.70
2018-05-16T06:16:32.827Z,90.60
2018-05-16T06:18:59.511Z,89.10
2018-05-16T06:21:26.204Z,89.00
2018-05-16T06:23:53.713Z,88.80
2018-05-16T06:26:20.404Z,87.30
2018-05-16T06:28:47.085Z,87.80
2018-05-16T06:31:13.774Z,85.70
2018-05-16T06:33:40.484Z,85.90
2018-05-16T06:36:07.169Z,84.00
2018-05-16T06:38:34.603Z,83.60
2018-05-16T06:41:01.296Z,83.50
2018-05-16T06:43:27.975Z,82.60
2018-05-16T06:45:54.738Z,82.80
2018-05-16T06:48:21.391Z,83.00
2018-05-16T06:50:48.838Z,82.60
2018-05-16T06:53:16.293Z,84.80
2018-05-16T06:55:42.994Z,84.70
2018-05-16T06:58:09.671Z,83.50
2018-05-16T07:00:37.107Z,82.80
2018-05-16T07:03:03.796Z,82.70
2018-05-16T07:05:30.484Z,82.80
2018-05-16T07:07:57.196Z,82.40
2018-05-16T07:10:23.878Z,82.20
2018-05-16T07:12:51.336Z,83.20
2018-05-16T07:15:18.764Z,84.80
2018-05-16T07:17:45.524Z,84.70
2018-05-16T07:20:12.941Z,81.30
2018-05-16T07:22:39.625Z,81.30
2018-05-16T07:25:07.848Z,82.20
2018-05-16T07:27:34.523Z,82.20
2018-05-16T07:30:01.243Z,82.30
2018-05-16T07:32:28.006Z,81.80
2018-05-16T07:34:54.663Z,81.50
2018-05-16T07:37:22.572Z,81.30
2018-05-16T07:39:50.569Z,81.30
2018-05-16T07:42:17.251Z,80.60
2018-05-16T07:44:43.951Z,80.30
2018-05-16T07:47:10.701Z,80.20
2018-05-16T07:49:37.378Z,80.80
2018-05-16T07:52:04.828Z,79.40
2018-05-16T07:54:31.549Z,79.40
2018-05-16T07:56:58.996Z,78.00
2018-05-16T07:59:25.705Z,77.90
2018-05-16T08:01:52.396Z,79.50
2018-05-16T08:04:19.075Z,77.80
2018-05-16T08:06:45.771Z,77.10
2018-05-16T08:09:12.499Z,77.00
2018-05-16T08:11:39.219Z,77.90
2018-05-16T08:14:05.974Z,76.80
2018-05-16T08:16:33.419Z,76.30
2018-05-16T08:19:00.884Z,76.10
2018-05-16T08:21:28.324Z,74.10
2018-05-16T08:23:56.543Z,74.40
2018-05-16T08:26:25.546Z,72.80
2018-05-16T08:28:52.226Z,72.80
2018-05-16T08:31:18.965Z,77.10
2018-05-16T08:33:45.666Z,75.60
2018-05-16T08:36:12.351Z,76.00
2018-05-16T08:38:39.791Z,75.20
2018-05-16T08:41:06.476Z,75.20
2018-05-16T08:43:33.172Z,74.40
2018-05-16T08:45:59.891Z,75.30
2018-05-16T08:48:26.598Z,73.30
2018-05-16T08:50:53.291Z,74.60
2018-05-16T08:53:19.983Z,73.20
2018-05-16T08:55:46.692Z,73.00
2018-05-16T08:58:14.164Z,71.50
2018-05-16T09:00:40.899Z,71.40
2018-05-16T09:03:07.617Z,70.30
2018-05-16T09:05:35.072Z,69.60
2018-05-16T09:08:02.517Z,67.80
2018-05-16T09:10:29.219Z,67.80
2018-05-16T09:12:55.912Z,66.60
2018-05-16T09:15:23.358Z,64.90
2018-05-16T09:17:50.799Z,61.40
2018-05-16T09:20:17.474Z,61.50
2018-05-16T09:22:44.156Z,62.90
2018-05-16T09:25:11.661Z,61.10
2018-05-16T09:27:38.724Z,58.20
2018-05-16T09:30:05.471Z,58.80
2018-05-16T09:32:32.156Z,62.40
2018-05-16T09:34:58.844Z,61.60
2018-05-16T09:37:25.544Z,61.50
2018-05-16T09:39:52.991Z,57.90
2018-05-16T09:42:19.694Z,57.80
2018-05-16T09:44:46.384Z,60.40
2018-05-16T09:47:13.864Z,60.80
2018-05-16T09:49:40.556Z,60.90
2018-05-16T09:52:07.248Z,61.60
2018-05-16T09:54:33.936Z,62.10
2018-05-16T09:57:00.656Z,60.90
2018-05-16T09:59:27.348Z,64.00
2018-05-16T10:01:54.055Z,64.30
2018-05-16T10:04:20.759Z,65.50
2018-05-16T10:06:47.433Z,65.40
2018-05-16T10:09:14.137Z,64.90
2018-05-16T10:11:40.826Z,67.90
2018-05-16T10:14:08.321Z,66.80
2018-05-16T10:16:35.033Z,66.80
2018-05-16T10:19:02.445Z,68.30
2018-05-16T10:21:29.152Z,68.10
2018-05-16T10:23:55.834Z,68.80
2018-05-16T10:26:23.292Z,68.50
2018-05-16T10:28:50.765Z,68.50
2018-05-16T10:31:18.215Z,69.30
2018-05-16T10:33:45.680Z,68.50
2018-05-16T10:36:13.129Z,67.60
2018-05-16T10:38:40.575Z,66.50
2018-05-16T10:41:07.280Z,66.50
2018-05-16T10:43:34.002Z,64.80
2018-05-16T10:46:00.720Z,65.50
2018-05-16T10:48:27.420Z,64.10
2018-05-16T10:50:54.144Z,63.10
2018-05-16T10:53:20.860Z,63.20
2018-05-16T10:55:47.579Z,62.00
2018-05-16T10:58:14.548Z,64.40
2018-05-16T11:00:42.037Z,60.30
2018-05-16T11:03:08.767Z,60.30
2018-05-16T11:05:35.485Z,59.10
2018-05-16T11:08:02.220Z,55.10
2018-05-16T11:10:28.959Z,53.70
2018-05-16T11:12:55.700Z,54.10
2018-05-16T11:15:22.448Z,53.90
2018-05-16T11:17:49.180Z,55.00
2018-05-16T11:20:15.926Z,56.90
2018-05-16T11:22:42.636Z,58.30
2018-05-16T11:25:09.388Z,57.60
2018-05-16T11:27:36.887Z,60.90
2018-05-16T11:30:04.612Z,60.90
2018-05-16T11:32:31.317Z,61.60
2018-05-16T11:34:58.807Z,62.70
2018-05-16T11:37:25.555Z,62.70
2018-05-16T11:39:52.280Z,65.00
2018-05-16T11:42:19.021Z,65.00
2018-05-16T11:44:45.779Z,65.90
2018-05-16T11:47:12.508Z,65.70
2018-05-16T11:49:39.254Z,66.10
2018-05-16T11:52:05.975Z,66.50
2018-05-16T11:54:32.684Z,68.20
2018-05-16T11:57:00.124Z,68.20
2018-05-16T11:59:26.824Z,68.30
2018-05-16T12:01:53.582Z,70.30
2018-05-16T12:04:20.312Z,69.80
2018-05-16T12:06:47.062Z,69.80
2018-05-16T12:09:13.815Z,71.00
2018-05-16T12:11:40.532Z,71.00
2018-05-16T12:14:07.324Z,72.60
2018-05-16T12:16:34.784Z,67.90
2018-05-16T12:19:01.494Z,67.80
2018-05-16T12:21:28.177Z,66.10
2018-05-16T12:23:54.887Z,66.30
2018-05-16T12:26:21.577Z,65.70
2018-05-16T12:28:48.286Z,65.30
2018-05-16T12:31:15.021Z,65.50
2018-05-16T12:33:41.711Z,65.00
2018-05-16T12:36:08.458Z,66.60
2018-05-16T12:38:35.176Z,65.20
2018-05-16T12:41:01.882Z,66.90
2018-05-16T12:43:30.547Z,65.60
2018-05-16T12:45:57.992Z,68.10
2018-05-16T12:48:24.719Z,68.10
2018-05-16T12:50:51.407Z,68.30
2018-05-16T12:53:18.137Z,69.00
2018-05-16T12:55:45.204Z,69.40
2018-05-16T12:58:11.907Z,69.20
2018-05-16T13:00:39.341Z,71.10
2018-05-16T13:03:06.055Z,71.10
2018-05-16T13:05:32.792Z,73.40
2018-05-16T13:07:59.492Z,74.70
2018-05-16T13:10:26.209Z,76.20
2018-05-16T13:12:53.767Z,77.10
2018-05-16T13:15:20.437Z,77.10
2018-05-16T13:17:47.238Z,77.50
2018-05-16T13:20:13.940Z,78.30
2018-05-16T13:22:40.680Z,78.80
2018-05-16T13:25:07.475Z,79.60
2018-05-16T13:27:34.959Z,81.50
2018-05-16T13:30:01.652Z,81.50
2018-05-16T13:32:28.370Z,82.10
2018-05-16T13:34:55.073Z,81.70
2018-05-16T13:37:21.782Z,83.30
2018-05-16T13:39:49.284Z,85.70
2018-05-16T13:42:16.032Z,85.70
2018-05-16T13:44:42.741Z,86.20
2018-05-16T13:47:09.484Z,84.90
2018-05-16T13:49:36.264Z,85.80
2018-05-16T13:52:27.062Z,86.30
2018-05-16T13:54:54.750Z,87.50
2018-05-16T13:57:22.224Z,89.10
2018-05-16T13:59:49.697Z,90.30
2018-05-16T14:02:16.449Z,90.30
2018-05-16T14:04:43.252Z,90.00
2018-05-16T14:07:10.713Z,91.90
2018-05-16T14:09:38.193Z,92.30
2018-05-16T14:12:05.049Z,92.30
2018-05-16T14:14:32.478Z,92.20
2018-05-16T14:16:59.224Z,92.20
2018-05-16T14:19:25.914Z,92.50
2018-05-16T14:21:52.621Z,93.40
2018-05-16T14:24:19.312Z,92.10
2018-05-16T14:26:45.996Z,92.80
2018-05-16T14:29:12.704Z,92.80
2018-05-16T14:31:40.169Z,93.80
2018-05-16T14:34:06.852Z,93.90
2018-05-16T14:36:33.571Z,94.60
2018-05-16T14:39:00.324Z,95.10
2018-05-16T14:41:27.041Z,94.90
2018-05-16T14:43:53.846Z,96.00
2018-05-16T14:46:21.337Z,95.90
2018-05-16T14:48:48.067Z,95.90
2018-05-16T14:51:16.432Z,94.80
2018-05-16T14:53:43.904Z,94.10
2018-05-16T14:56:10.651Z,94.00
2018-05-16T14:58:37.418Z,94.10
2018-05-16T15:01:04.192Z,94.10
2018-05-16T15:03:30.999Z,94.30
2018-05-16T15:05:57.686Z,94.00
2018-05-16T15:08:25.154Z,94.50
2018-05-16T15:10:51.972Z,94.40
2018-05-16T15:13:19.467Z,93.10
2018-05-16T15:15:46.204Z,93.10
2018-05-16T15:18:12.953Z,93.10
2018-05-16T15:20:39.797Z,94.20
2018-05-16T15:23:06.577Z,93.60
2018-05-16T15:25:33.392Z,94.00
2018-05-16T15:28:00.159Z,94.60
2018-05-16T15:30:26.877Z,94.80
2018-05-16T15:32:53.747Z,94.80
2018-05-16T15:35:20.497Z,95.10
2018-05-16T15:37:47.982Z,95.30
2018-05-16T15:40:14.728Z,95.30
2018-05-16T15:42:41.451Z,94.90
2018-05-16T15:45:08.223Z,95.10
2018-05-16T15:47:34.960Z,94.40
2018-05-16T15:50:01.740Z,94.50
2018-05-16T15:52:28.479Z,94.20
2018-05-16T15:54:55.202Z,93.70
2018-05-16T15:57:21.939Z,89.20
2018-05-16T15:59:48.710Z,88.20
2018-05-16T16:02:15.431Z,88.30
2018-05-16T16:04:42.173Z,87.90
2018-05-16T16:07:09.577Z,88.10
2018-05-16T16:09:36.316Z,88.50
2018-05-16T16:12:03.084Z,89.20
2018-05-16T16:14:29.807Z,90.10
2018-05-16T16:16:56.577Z,88.20
2018-05-16T16:19:23.333Z,87.40
2018-05-16T16:21:50.112Z,88.10
2018-05-16T16:24:16.884Z,89.10
2018-05-16T16:26:43.624Z,87.50
2018-05-16T16:29:10.366Z,86.40
2018-05-16T16:31:37.269Z,87.10
2018-05-16T16:34:04.042Z,88.40
2018-05-16T16:36:30.764Z,89.40
2018-05-16T16:38:57.595Z,88.40
2018-05-16T16:41:24.267Z,88.50
2018-05-16T16:43:51.526Z,87.90
2018-05-16T16:46:18.694Z,88.20
2018-05-16T16:48:45.741Z,88.60
2018-05-16T16:51:12.470Z,89.40
2018-05-16T16:53:39.244Z,88.00
2018-05-16T16:56:06.751Z,90.40
2018-05-16T16:58:34.004Z,90.40
2018-05-16T17:01:00.745Z,89.40
2018-05-16T17:03:27.479Z,89.10
2018-05-16T17:05:54.204Z,88.50
2018-05-16T17:08:21.012Z,89.70
2018-05-16T17:10:47.740Z,89.10
2018-05-16T17:13:14.510Z,89.30
2018-05-16T17:15:41.232Z,88.00
2018-05-16T17:18:08.820Z,89.60
2018-05-16T17:20:36.545Z,89.60
2018-05-16T17:23:04.057Z,90.10
2018-05-16T17:25:31.784Z,90.10
2018-05-16T17:27:59.425Z,90.30
2018-05-16T17:30:26.959Z,90.70
2018-05-16T17:32:53.673Z,90.80
2018-05-16T17:35:20.395Z,90.60
2018-05-16T17:37:47.107Z,91.70
2018-05-16T17:40:14.584Z,92.10
2018-05-16T17:42:41.324Z,92.10
2018-05-16T17:45:08.070Z,92.20
2018-05-16T17:47:35.855Z,92.60
2018-05-16T17:50:02.659Z,93.00
2018-05-16T17:52:29.379Z,93.10
2018-05-16T17:54:56.840Z,93.30
2018-05-16T17:57:24.368Z,93.60
2018-05-16T17:59:51.092Z,93.50
2018-05-16T18:02:17.853Z,93.30
2018-05-16T18:04:44.592Z,93.50
2018-05-16T18:07:11.297Z,93.90
2018-05-16T18:09:38.019Z,94.30
2018-05-16T18:12:05.494Z,95.00
2018-05-16T18:18:10.655Z,95.50
2018-05-16T18:20:37.721Z,95.50
2018-05-16T18:23:05.702Z,95.60
2018-05-16T18:25:32.831Z,95.90
2018-05-16T18:27:59.939Z,96.20
2018-05-16T18:30:26.994Z,96.60
2018-05-16T18:32:54.044Z,96.90
2018-05-16T18:35:21.113Z,98.10
2018-05-16T18:37:48.174Z,97.50
2018-05-16T18:40:15.931Z,97.50
2018-05-16T18:42:43.083Z,97.50
2018-05-16T18:45:10.202Z,96.50
2018-05-16T18:47:37.359Z,95.60
2018-05-16T18:50:04.450Z,94.80
2018-05-16T18:52:31.575Z,94.80
2018-05-16T18:54:58.651Z,95.00
2018-05-16T18:57:25.755Z,95.00
2018-05-16T18:59:52.910Z,95.30
2018-05-16T19:02:20.061Z,95.60
2018-05-16T19:04:47.129Z,95.80
2018-05-16T19:07:14.925Z,95.90
2018-05-16T19:09:47.851Z,95.90
2018-05-16T19:12:14.903Z,95.90
2018-05-16T19:14:42.011Z,96.00
2018-05-16T19:17:10.126Z,96.10
2018-05-16T19:19:37.258Z,95.80
2018-05-16T19:22:05.127Z,94.20
2018-05-16T19:24:32.222Z,93.20
2018-05-16T19:26:59.520Z,92.90
2018-05-16T19:29:26.647Z,92.50
2018-05-16T19:31:54.583Z,92.80
2018-05-16T19:34:23.577Z,93.70
2018-05-16T19:36:50.678Z,93.70
2018-05-16T19:39:17.737Z,93.60
2018-05-16T19:41:44.794Z,94.60
2018-05-16T19:44:12.584Z,94.40
2018-05-16T19:46:39.721Z,94.40
2018-05-16T19:49:07.154Z,93.30
2018-05-16T19:51:34.219Z,92.50
2018-05-16T19:54:01.273Z,91.90
2018-05-16T19:56:28.331Z,92.00
2018-05-16T19:58:56.290Z,92.80
2018-05-16T20:01:23.345Z,93.10
2018-05-16T20:03:50.473Z,93.70
2018-05-16T20:06:17.644Z,94.30
2018-05-16T20:08:44.687Z,93.80
2018-05-16T20:11:11.752Z,93.90
2018-05-16T20:13:39.575Z,94.60
2018-05-16T20:16:07.479Z,94.60
2018-05-16T20:18:34.560Z,94.80
2018-05-16T20:21:01.575Z,94.80
2018-05-16T20:23:29.393Z,94.80
2018-05-16T20:25:56.414Z,94.80
2018-05-16T20:28:23.459Z,95.10
2018-05-16T20:30:50.477Z,95.70
2018-05-16T20:33:17.552Z,96.40
2018-05-16T20:35:45.349Z,97.10
2018-05-16T20:38:13.162Z,97.50
2018-05-16T20:40:40.932Z,97.90
2018-05-16T20:43:08.732Z,98.10
2018-05-16T20:45:35.802Z,98.10
2018-05-16T20:48:02.852Z,97.80
2018-05-16T20:50:29.893Z,97.90
2018-05-16T20:52:56.933Z,98.10
2018-05-16T20:55:23.996Z,98.20
2018-05-16T20:57:51.036Z,98.60
2018-05-16T21:00:18.071Z,99.10
2018-05-16T21:02:45.096Z,99.30
2018-05-16T21:05:12.991Z,99.40
2018-05-16T21:07:40.919Z,99.70
2018-05-16T21:10:08.686Z,99.80
2018-05-16T21:12:35.686Z,99.70
2018-05-16T21:15:03.176Z,99.50
2018-05-16T21:17:30.218Z,99.90
2018-05-16T21:19:58.156Z,99.90
2018-05-16T21:22:25.249Z,99.90
2018-05-16T21:24:52.996Z,99.90
2018-05-16T21:27:21.847Z,99.90
2018-05-16T21:29:48.921Z,99.90
2018-05-16T21:32:15.993Z,99.90
2018-05-16T21:34:43.779Z,99.90
2018-05-16T21:37:10.892Z,99.90
2018-05-16T21:39:37.899Z,99.90
2018-05-16T21:42:04.966Z,99.90
2018-05-16T21:44:32.555Z,99.90
2018-05-16T21:46:59.580Z,99.90
2018-05-16T21:49:27.034Z,99.90
2018-05-16T21:51:54.104Z,99.90
2018-05-16T21:54:21.154Z,99.90
2018-05-16T21:56:49.032Z,99.90
2018-05-16T21:59:15.984Z,99.90
2018-05-16T22:01:43.017Z,99.90
2018-05-16T22:04:10.798Z,99.90
2018-05-16T22:06:37.847Z,99.90
2018-05-16T22:09:05.691Z,99.90
2018-05-16T22:11:33.412Z,99.90
2018-05-16T22:14:00.422Z,99.90
2018-05-16T22:16:27.452Z,99.90
2018-05-16T22:18:55.241Z,99.90
2018-05-16T22:21:22.284Z,99.90
2018-05-16T22:23:49.327Z,99.90
2018-05-16T22:26:17.116Z,99.90
2018-05-16T22:28:44.145Z,99.90
2018-05-16T22:31:17.279Z,99.90
2018-05-16T22:33:50.500Z,99.90
2018-05-16T22:36:23.595Z,99.90
2018-05-16T22:38:57.415Z,99.90
2018-05-16T22:41:31.300Z,99.90
2018-05-16T22:44:01.642Z,99.90
2018-05-16T22:46:29.427Z,99.90
2018-05-16T22:48:56.455Z,99.90
2018-05-16T22:51:24.508Z,99.90
2018-05-16T22:53:51.527Z,99.90
2018-05-16T22:56:18.535Z,99.90
2018-05-16T22:58:45.641Z,99.90
2018-05-16T23:01:12.995Z,99.90
2018-05-16T23:03:40.001Z,99.90
2018-05-16T23:06:07.142Z,99.90
2018-05-16T23:08:34.151Z,99.90
2018-05-16T23:11:01.172Z,99.90
2018-05-16T23:13:28.215Z,99.90
2018-05-16T23:15:55.279Z,99.90
2018-05-16T23:18:23.031Z,99.90
2018-05-16T23:20:50.033Z,99.90
2018-05-16T23:23:17.027Z,99.90
2018-05-16T23:25:44.027Z,99.90
2018-05-16T23:28:11.172Z,99.90
2018-05-16T23:30:38.224Z,99.90
2018-05-16T23:33:05.236Z,99.90
2018-05-16T23:35:33.219Z,99.90
2018-05-16T23:38:00.959Z,99.90
2018-05-16T23:40:28.249Z,99.90
2018-05-16T23:42:55.259Z,99.90
2018-05-16T23:45:22.459Z,99.90
2018-05-16T23:47:50.492Z,99.90
2018-05-16T23:50:17.691Z,99.90
2018-05-16T23:52:44.664Z,99.90
2018-05-16T23:55:11.679Z,99.90
2018-05-16T23:57:39.521Z,99.90
